Time;durP1;ratioP1;P1;durP2;ratioP2;P2;SDS_P1;SDS_P2;PMS_P1;PMS_P2;Temp;Humidity;BMP_temperature;BMP_pressure;BME280_temperature;BME280_humidity;BME280_pressure;Samples;Min_cycle;Max_cycle;Signal;HPM_P1;HPM_P2
2023/02/08 00:01:26;;;;;;;64.63;31.80;;;-3.30;99.90;;;-141.84;81.49;18649.47;5049119;28;20225;-55
2023/02/08 00:03:54;;;;;;;64.40;31.47;;;-3.30;99.90;;;-141.84;81.19;18657.59;5049261;28;20732;-57
2023/02/08 00:06:22;;;;;;;78.40;31.87;;;-3.30;99.90;;;-141.84;80.85;18633.22;5049379;28;20275;-57
2023/02/08 00:08:50;;;;;;;70.63;30.60;;;-3.30;99.90;;;-141.84;81.00;18635.25;5049538;28;20209;-56
2023/02/08 00:11:20;;;;;;;65.67;32.20;;;-3.40;99.90;;;-141.84;81.47;18655.56;5049583;28;20205;-56
2023/02/08 00:13:48;;;;;;;67.37;30.27;;;-3.40;99.90;;;-141.84;81.01;18631.19;5049257;28;20613;-56
2023/02/08 00:16:17;;;;;;;64.00;30.50;;;-3.40;99.90;;;-141.84;81.07;18667.75;5048773;28;20603;-57
2023/02/08 00:18:45;;;;;;;58.50;30.10;;;-3.40;99.90;;;-141.84;81.18;18625.09;5049321;28;20234;-57
2023/02/08 00:21:17;;;;;;;56.90;28.60;;;-3.40;99.90;;;-141.84;81.27;18661.66;5049121;28;20232;-56
2023/02/08 00:23:46;;;;;;;63.23;29.93;;;-3.40;99.90;;;-141.84;81.29;18645.41;5049341;28;20199;-58
2023/02/08 00:26:15;;;;;;;83.07;29.13;;;-3.50;99.90;;;-141.84;80.65;18647.44;5049279;28;20205;-57
2023/02/08 00:28:45;;;;;;;58.63;29.53;;;-3.40;99.90;;;-141.84;80.48;18675.88;5048920;28;20232;-56
2023/02/08 00:31:13;;;;;;;62.23;28.90;;;-3.50;99.90;;;-141.84;80.79;18625.09;5048785;28;20716;-56
2023/02/08 00:33:41;;;;;;;58.60;28.10;;;-3.60;99.90;;;-141.84;81.01;18663.69;5048915;28;20319;-56
2023/02/08 00:36:11;;;;;;;58.20;28.33;;;-3.60;99.90;;;-141.84;80.38;18653.53;5048823;28;20228;-58
2023/02/08 00:38:39;;;;;;;61.40;27.83;;;-3.60;99.90;;;-141.84;79.87;18627.13;5049259;28;20684;-58
2023/02/08 00:41:07;;;;;;;54.47;28.00;;;-3.60;99.90;;;-141.84;79.15;18657.59;5048900;28;20235;-56
2023/02/08 00:43:35;;;;;;;51.53;26.90;;;-3.60;99.90;;;-141.84;79.18;18612.91;5049041;28;20228;-55
2023/02/08 00:46:06;;;;;;;49.00;25.67;;;-3.70;99.90;;;-141.84;79.26;18667.75;5048567;28;20226;-56
2023/02/08 00:48:35;;;;;;;50.33;25.77;;;-3.70;99.90;;;-141.84;79.05;18633.22;5048991;28;20234;-57
2023/02/08 00:51:06;;;;;;;46.03;24.23;;;-3.60;99.90;;;-141.84;79.53;18665.72;5048860;28;20232;-58
2023/02/08 00:53:37;;;;;;;44.50;23.70;;;-3.80;99.90;;;-141.84;79.87;18639.31;5049639;28;20620;-55
2023/02/08 00:56:06;;;;;;;49.20;24.47;;;-3.80;99.90;;;-141.84;79.39;18637.28;5048816;28;20246;-55
2023/02/08 00:58:34;;;;;;;45.37;23.93;;;-3.80;99.90;;;-141.84;79.03;18639.31;5048751;28;20765;-55
2023/02/08 01:01:06;;;;;;;48.67;23.10;;;-3.90;99.90;;;-141.84;78.94;18651.50;5048771;28;20231;-58
2023/02/08 01:03:36;;;;;;;45.13;24.10;;;-4.00;99.90;;;-141.84;79.17;18661.66;5048957;28;20589;-55
2023/02/08 01:06:08;;;;;;;42.23;22.73;;;-4.10;99.90;;;-141.84;79.40;18671.81;5051972;28;20701;-56
2023/02/08 01:08:37;;;;;;;46.43;24.27;;;-4.00;99.90;;;-141.84;79.57;18633.22;5053327;28;20192;-56
2023/02/08 01:11:09;;;;;;;39.23;22.17;;;-4.20;99.90;;;-141.84;79.90;18614.94;5052210;28;20608;-57
2023/02/08 01:13:38;;;;;;;46.60;22.07;;;-4.20;99.90;;;-141.84;80.16;18619.00;5052401;28;20230;-56
2023/02/08 01:16:11;;;;;;;43.87;22.73;;;-4.30;99.90;;;-141.84;80.01;18667.75;5051905;28;20342;-58
2023/02/08 01:18:41;;;;;;;43.80;22.00;;;-4.20;99.90;;;-141.84;79.98;18637.28;5052247;28;20314;-58
2023/02/08 01:21:13;;;;;;;39.70;21.17;;;-4.20;99.90;;;-141.84;79.70;18633.22;5052264;28;20225;-58
2023/02/08 01:23:43;;;;;;;42.50;22.93;;;-4.20;99.90;;;-141.84;79.94;18635.25;5052821;28;20194;-58
2023/02/08 01:26:13;;;;;;;38.93;20.73;;;-4.20;99.90;;;-141.84;79.22;18661.66;5052271;28;20211;-56
2023/02/08 01:28:42;;;;;;;38.00;19.73;;;-4.20;99.90;;;-141.84;79.29;18635.25;5051932;28;20732;-57
2023/02/08 01:31:15;;;;;;;33.17;19.20;;;-4.30;99.90;;;-141.84;79.11;18614.94;5051742;28;20231;-57
2023/02/08 01:33:43;;;;;;;34.40;19.10;;;-4.30;99.90;;;-141.84;78.99;18633.22;5052099;28;20250;-57
2023/02/08 01:36:12;;;;;;;38.07;20.60;;;-4.40;99.90;;;-141.84;79.12;18643.38;5052096;28;20222;-59
2023/02/08 01:38:41;;;;;;;37.30;20.27;;;-4.50;99.90;;;-141.84;79.21;18647.44;5052385;28;20315;-54
2023/02/08 01:41:15;;;;;;;38.43;20.90;;;-4.60;99.90;;;-141.84;78.99;18643.38;5052101;28;20227;-59
2023/02/08 01:44:33;;;;;;;37.13;19.97;;;-4.60;99.90;;;-141.84;79.56;18619.00;5051846;28;20703;-56
2023/02/08 01:47:03;;;;;;;39.00;21.40;;;-4.70;99.90;;;-141.84;79.63;18623.06;5051486;28;20222;-56
2023/02/08 01:49:36;;;;;;;38.63;21.27;;;-4.80;99.90;;;-141.84;79.77;18639.31;5051816;28;20255;-55
2023/02/08 01:52:10;;;;;;;39.67;21.03;;;-4.70;99.90;;;-141.84;79.77;18633.22;5051620;28;20231;-57
2023/02/08 01:54:44;;;;;;;39.07;21.70;;;-4.90;99.90;;;-141.84;80.06;18594.63;5051715;28;20239;-56
2023/02/08 01:57:13;;;;;;;42.83;21.47;;;-4.90;99.90;;;-141.84;80.45;18627.13;5051423;28;21006;-57
2023/02/08 01:59:46;;;;;;;35.67;20.90;;;-4.90;99.90;;;-141.84;80.35;18590.56;5052165;28;20208;-57
2023/02/08 02:02:21;;;;;;;41.43;21.83;;;-4.90;99.90;;;-141.84;80.22;18616.97;5051746;28;20597;-55
2023/02/08 02:04:52;;;;;;;41.07;21.77;;;-4.90;99.90;;;-141.84;80.37;18639.31;5051687;28;20230;-55
2023/02/08 02:07:26;;;;;;;39.03;21.43;;;-4.90;99.90;;;-141.84;80.67;18639.31;5051331;28;20745;-57
2023/02/08 02:10:03;;;;;;;41.23;21.60;;;-4.90;99.90;;;-141.84;80.74;18635.25;5051453;28;20233;-56
2023/02/08 02:12:33;;;;;;;42.20;22.33;;;-5.00;99.90;;;-141.84;80.97;18633.22;5051510;28;20410;-58
2023/02/08 02:15:01;;;;;;;41.63;22.83;;;-4.90;99.90;;;-141.84;81.38;18635.25;5051189;28;20207;-58
2023/02/08 02:17:31;;;;;;;44.33;22.87;;;-5.10;99.90;;;-141.84;81.53;18641.34;5051613;28;20218;-57
2023/02/08 02:20:10;;;;;;;41.40;21.83;;;-5.10;99.90;;;-141.84;80.98;18623.06;5051345;28;20729;-56
2023/02/08 02:23:34;;;;;;;42.97;23.53;;;-5.00;99.90;;;-141.84;80.57;18639.31;5051002;28;20247;-56
2023/02/08 02:27:05;;;;;;;40.60;22.27;;;-5.00;99.90;;;-141.84;80.72;18614.94;5040734;28;20250;-57
2023/02/08 02:30:23;;;;;;;40.77;22.60;;;-5.10;99.90;;;-141.84;81.19;18610.88;5044355;28;20243;-56
2023/02/08 02:33:18;;;;;;;44.20;22.67;;;-5.10;99.90;;;-141.84;81.52;18598.69;5050623;28;20227;-56
2023/02/08 02:35:56;;;;;;;41.70;22.27;;;-5.00;99.90;;;-141.84;81.43;18627.13;5051104;28;20194;-55
2023/02/08 02:38:41;;;;;;;44.30;23.27;;;-5.10;99.90;;;-141.84;81.01;18625.09;5051192;28;20210;-57
2023/02/08 02:44:21;;;;;;;44.73;22.50;;;-5.10;99.90;;;-141.84;80.74;18657.59;5050668;28;20221;-58
2023/02/08 02:47:02;;;;;;;47.73;23.00;;;-5.10;99.90;;;-141.84;80.53;18631.19;5050503;28;20254;-58
2023/02/08 02:49:42;;;;;;;45.47;23.10;;;-5.20;99.90;;;-141.84;80.30;18637.28;5050425;28;20232;-58
2023/02/08 02:52:17;;;;;;;42.47;22.70;;;-5.20;99.90;;;-141.84;78.99;18635.25;5050354;28;20232;-59
2023/02/08 02:54:51;;;;;;;47.10;23.40;;;-5.00;99.90;;;-141.84;77.30;18633.22;5050116;28;20929;-56
2023/02/08 02:57:26;;;;;;;41.30;22.57;;;-4.90;99.90;;;-141.84;78.20;18663.69;5050595;28;20243;-56
2023/02/08 02:59:54;;;;;;;46.50;23.97;;;-5.00;99.90;;;-141.84;78.91;18649.47;5050045;28;20183;-56
2023/02/08 03:02:26;;;;;;;49.37;24.57;;;-5.20;99.90;;;-141.84;79.70;18651.50;5050813;28;20206;-55
2023/02/08 03:04:57;;;;;;;53.13;26.00;;;-5.30;99.90;;;-141.84;80.53;18627.13;5050183;28;20236;-56
2023/02/08 03:07:53;;;;;;;48.27;23.93;;;-5.40;99.90;;;-141.84;81.21;18616.97;5050442;28;20243;-56
2023/02/08 03:10:47;;;;;;;48.53;24.47;;;-5.40;99.90;;;-141.84;81.88;18594.63;5050210;28;20229;-55
2023/02/08 03:13:32;;;;;;;46.80;24.60;;;-5.40;99.90;;;-141.84;82.15;18629.16;5050073;28;20604;-58
2023/02/08 03:16:17;;;;;;;46.00;24.03;;;-5.50;99.90;;;-141.84;82.65;18586.50;5049727;28;20246;-57
2023/02/08 03:19:05;;;;;;;49.00;25.67;;;-5.50;99.90;;;-141.84;82.57;18643.38;5049873;28;20307;-54
2023/02/08 03:21:43;;;;;;;51.37;25.47;;;-5.60;99.90;;;-141.84;82.49;18627.13;5049733;28;20312;-57
2023/02/08 03:24:27;;;;;;;50.70;24.50;;;-5.50;99.90;;;-141.84;82.16;18602.75;5049977;28;20227;-55
2023/02/08 03:27:04;;;;;;;51.43;25.03;;;-5.60;99.90;;;-141.84;81.92;18608.84;5049219;28;20189;-56
2023/02/08 03:29:48;;;;;;;47.93;23.77;;;-5.70;99.90;;;-141.84;82.30;18627.13;5050245;28;20191;-57
2023/02/08 03:32:23;;;;;;;49.37;24.33;;;-5.70;99.90;;;-141.84;82.58;18614.94;5050331;28;20216;-57
2023/02/08 03:34:57;;;;;;;47.60;25.53;;;-5.70;99.90;;;-141.84;82.63;18582.44;5049552;28;20277;-57
2023/02/08 03:37:33;;;;;;;45.27;24.53;;;-5.70;99.90;;;-141.84;82.72;18594.63;5049656;28;20232;-56
2023/02/08 03:40:07;;;;;;;48.83;24.97;;;-5.70;99.90;;;-141.84;83.01;18616.97;5049461;28;20230;-55
2023/02/08 03:42:38;;;;;;;49.17;24.50;;;-5.70;99.90;;;-141.84;83.05;18586.50;5049756;28;20234;-57
2023/02/08 03:45:16;;;;;;;47.37;25.03;;;-5.70;99.90;;;-141.84;82.72;18598.69;5049200;28;20226;-56
2023/02/08 03:47:50;;;;;;;51.10;25.10;;;-5.70;99.90;;;-141.84;82.74;18602.75;5049216;28;20639;-58
2023/02/08 03:50:21;;;;;;;48.33;24.83;;;-5.70;99.90;;;-141.84;82.70;18602.75;5049751;28;20186;-56
2023/02/08 03:52:53;;;;;;;49.33;24.70;;;-5.70;99.90;;;-141.84;82.86;18612.91;5049296;28;20252;-56
2023/02/08 03:55:27;;;;;;;46.77;24.63;;;-5.80;99.90;;;-141.84;82.57;18616.97;5049193;28;20252;-57
2023/02/08 03:58:03;;;;;;;47.37;25.03;;;-5.70;99.90;;;-141.84;82.55;18610.88;5049292;28;20247;-55
2023/02/08 04:00:38;;;;;;;51.37;25.07;;;-5.70;99.90;;;-141.84;82.27;18625.09;5049352;28;20280;-56
2023/02/08 04:03:15;;;;;;;48.70;24.90;;;-5.70;99.90;;;-141.84;81.98;18612.91;5049477;28;20227;-54
2023/02/08 04:05:44;;;;;;;53.33;25.63;;;-5.70;99.90;;;-141.84;81.70;18598.69;5049293;28;20183;-54
2023/02/08 04:08:14;;;;;;;50.20;25.90;;;-5.60;99.90;;;-141.84;81.42;18610.88;5050283;28;20211;-57
2023/02/08 04:10:42;;;;;;;48.30;25.40;;;-5.60;99.90;;;-141.84;81.55;18623.06;5048866;28;20224;-55
2023/02/08 04:13:10;;;;;;;55.10;26.47;;;-5.60;99.90;;;-141.84;81.35;18600.72;5049445;28;20309;-56
2023/02/08 04:15:38;;;;;;;48.37;25.20;;;-5.60;99.90;;;-141.84;80.99;18639.31;5048659;28;20237;-56
2023/02/08 04:18:07;;;;;;;51.07;26.00;;;-5.60;99.90;;;-141.84;80.44;18639.31;5049055;28;20251;-56
2023/02/08 04:20:35;;;;;;;49.47;24.90;;;-5.50;99.90;;;-141.84;80.21;18612.91;5049598;28;20209;-58
2023/02/08 04:23:03;;;;;;;46.87;25.20;;;-5.40;99.90;;;-141.84;80.07;18612.91;5048811;28;20233;-55
2023/02/08 04:25:32;;;;;;;46.80;24.17;;;-5.50;99.90;;;-141.84;80.15;18621.03;5048614;28;20733;-56
2023/02/08 04:28:00;;;;;;;53.83;25.33;;;-5.50;99.90;;;-141.84;80.09;18631.19;5049087;28;20359;-55
2023/02/08 04:30:29;;;;;;;48.67;25.93;;;-5.50;99.90;;;-141.84;80.49;18619.00;5048727;28;20308;-57
2023/02/08 04:32:58;;;;;;;51.33;26.73;;;-5.50;99.90;;;-141.84;79.91;18621.03;5049078;28;20224;-57
2023/02/08 04:35:27;;;;;;;49.17;26.37;;;-5.60;99.90;;;-141.84;78.82;18627.13;5049261;28;20245;-57
2023/02/08 04:37:55;;;;;;;48.13;25.43;;;-5.60;99.90;;;-141.84;79.10;18623.06;5048706;28;20229;-57
2023/02/08 04:40:23;;;;;;;49.27;24.20;;;-5.60;99.90;;;-141.84;78.89;18623.06;5051107;28;20229;-56
2023/02/08 04:42:53;;;;;;;48.83;25.70;;;-5.50;99.90;;;-141.84;79.32;18614.94;5053002;28;20282;-57
2023/02/08 04:45:21;;;;;;;47.30;26.07;;;-5.70;99.90;;;-141.84;80.09;18631.19;5052725;28;20232;-58
2023/02/08 04:47:49;;;;;;;49.33;26.63;;;-5.60;99.90;;;-141.84;80.26;18643.38;5052920;28;20209;-55
2023/02/08 04:50:17;;;;;;;47.00;27.17;;;-5.60;99.90;;;-141.84;80.00;18633.22;5053456;28;20553;-57
2023/02/08 04:52:45;;;;;;;50.53;26.10;;;-5.60;99.90;;;-141.84;80.79;18600.72;5052719;28;20233;-57
2023/02/08 04:55:13;;;;;;;49.63;25.93;;;-5.70;99.90;;;-141.84;81.11;18629.16;5052298;28;20229;-55
2023/02/08 04:57:41;;;;;;;48.80;25.63;;;-5.70;99.90;;;-141.84;80.82;18614.94;5052624;28;20256;-57
2023/02/08 05:00:13;;;;;;;43.90;24.17;;;-5.70;99.90;;;-141.84;80.71;18612.91;5052414;28;20234;-53
2023/02/08 05:02:41;;;;;;;49.37;25.63;;;-5.80;99.90;;;-141.84;80.64;18619.00;5053171;28;20185;-54
2023/02/08 05:05:09;;;;;;;49.70;24.87;;;-5.80;99.90;;;-141.84;80.67;18619.00;5052821;28;20221;-61
2023/02/08 05:07:37;;;;;;;45.87;24.60;;;-5.80;99.90;;;-141.84;80.92;18623.06;5052541;28;20717;-61
2023/02/08 05:10:06;;;;;;;48.40;24.97;;;-5.80;99.90;;;-141.84;80.44;18633.22;5052315;28;20321;-61
2023/02/08 05:12:34;;;;;;;46.50;25.00;;;-5.70;99.90;;;-141.84;80.34;18623.06;5052346;28;20304;-61
2023/02/08 05:15:03;;;;;;;51.10;26.13;;;-5.70;99.90;;;-141.84;80.52;18627.13;5052154;28;20233;-62
2023/02/08 05:17:33;;;;;;;49.60;25.20;;;-5.70;99.90;;;-141.84;80.36;18627.13;5052954;28;20190;-60
2023/02/08 05:20:01;;;;;;;48.93;25.83;;;-5.70;99.90;;;-141.84;80.01;18623.06;5052072;28;20241;-61
2023/02/08 05:22:29;;;;;;;52.27;24.90;;;-5.60;99.90;;;-141.84;79.10;18614.94;5052274;28;20238;-62
2023/02/08 05:24:57;;;;;;;50.47;26.50;;;-5.60;99.90;;;-141.84;79.52;18635.25;5052127;28;20610;-61
2023/02/08 05:27:25;;;;;;;47.27;24.87;;;-5.60;99.90;;;-141.84;79.05;18590.56;5051800;28;20307;-61
2023/02/08 05:29:54;;;;;;;47.93;25.00;;;-5.50;99.90;;;-141.84;78.90;18639.31;5052090;28;20204;-62
2023/02/08 05:32:24;;;;;;;49.00;25.83;;;-5.50;99.90;;;-141.84;78.73;18643.38;5052855;28;20588;-61
2023/02/08 05:34:54;;;;;;;50.43;25.43;;;-5.40;99.90;;;-141.84;78.95;18633.22;5052054;28;20226;-62
2023/02/08 05:37:22;;;;;;;44.83;25.10;;;-5.50;99.90;;;-141.84;78.91;18643.38;5052246;28;20747;-62
2023/02/08 05:39:50;;;;;;;50.43;26.50;;;-5.50;99.90;;;-141.84;78.88;18629.16;5052295;28;20234;-62
2023/02/08 05:42:18;;;;;;;46.67;26.23;;;-5.50;99.90;;;-141.84;78.66;18631.19;5052096;28;20227;-61
2023/02/08 05:44:46;;;;;;;49.03;25.73;;;-5.50;99.90;;;-141.84;78.94;18639.31;5052414;28;20712;-62
2023/02/08 05:47:14;;;;;;;46.73;24.67;;;-5.60;99.90;;;-141.84;79.23;18651.50;5052256;28;20213;-62
2023/02/08 05:49:43;;;;;;;48.03;25.53;;;-5.60;99.90;;;-141.84;79.80;18643.38;5051540;28;20222;-62
2023/02/08 05:52:12;;;;;;;45.73;24.03;;;-5.60;99.90;;;-141.84;79.29;18623.06;5051725;28;20247;-62
2023/02/08 05:54:40;;;;;;;45.33;25.10;;;-5.60;99.90;;;-141.84;79.14;18631.19;5051404;28;20228;-61
2023/02/08 05:57:10;;;;;;;48.80;25.53;;;-5.60;99.90;;;-141.84;79.53;18639.31;5051210;28;20762;-61
2023/02/08 05:59:39;;;;;;;50.73;26.43;;;-5.70;99.90;;;-141.84;79.70;18608.84;5051899;28;20213;-61
2023/02/08 06:02:07;;;;;;;44.63;24.50;;;-5.70;99.90;;;-141.84;79.39;18619.00;5052379;28;20240;-62
2023/02/08 06:04:35;;;;;;;50.00;25.67;;;-5.70;99.90;;;-141.84;79.65;18600.72;5054023;28;20227;-61
2023/02/08 06:07:06;;;;;;;47.90;26.13;;;-5.70;99.90;;;-141.84;80.22;18616.97;5053121;28;20229;-62
2023/02/08 06:09:35;;;;;;;47.03;25.57;;;-5.80;99.90;;;-141.84;80.53;18602.75;5052254;28;20230;-61
2023/02/08 06:12:04;;;;;;;47.97;25.67;;;-5.80;99.90;;;-141.84;80.10;18639.31;5051684;28;20256;-62
2023/02/08 06:14:32;;;;;;;51.00;27.57;;;-5.70;99.90;;;-141.84;79.94;18629.16;5052241;28;20206;-61
2023/02/08 06:17:00;;;;;;;45.53;25.60;;;-5.70;99.90;;;-141.84;80.21;18598.69;5050777;28;20244;-62
2023/02/08 06:19:28;;;;;;;47.90;25.60;;;-5.70;99.90;;;-141.84;79.51;18637.28;5051431;28;20229;-61
2023/02/08 06:21:56;;;;;;;47.00;24.97;;;-5.60;99.90;;;-141.84;78.59;18651.50;5051200;28;20244;-61
2023/02/08 06:24:24;;;;;;;49.13;25.50;;;-5.60;99.90;;;-141.84;78.79;18623.06;5051133;28;20240;-63
2023/02/08 06:26:54;;;;;;;47.43;25.53;;;-5.60;99.90;;;-141.84;78.52;18612.91;5050693;28;20203;-61
2023/02/08 06:29:22;;;;;;;53.70;25.60;;;-5.60;99.90;;;-141.84;78.50;18647.44;5051401;28;20210;-62
2023/02/08 06:31:50;;;;;;;45.07;24.90;;;-5.60;99.90;;;-141.84;78.65;18619.00;5050641;28;20231;-62
2023/02/08 06:34:19;;;;;;;44.93;25.17;;;-5.70;99.90;;;-141.84;78.94;18637.28;5051009;28;20308;-61
2023/02/08 06:36:47;;;;;;;46.30;24.73;;;-5.60;99.90;;;-141.84;78.99;18619.00;5050596;28;20230;-61
2023/02/08 06:39:15;;;;;;;48.60;25.90;;;-5.60;99.90;;;-141.84;79.01;18606.81;5050550;28;20639;-61
2023/02/08 06:41:43;;;;;;;48.07;25.40;;;-5.70;99.90;;;-141.84;78.66;18631.19;5050752;28;20210;-60
2023/02/08 06:44:13;;;;;;;48.80;25.90;;;-5.60;99.90;;;-141.84;78.62;18649.47;5051295;28;20205;-61
2023/02/08 06:46:41;;;;;;;45.63;25.73;;;-5.60;99.90;;;-141.84;78.96;18627.13;5050543;28;20241;-62
2023/02/08 06:49:09;;;;;;;50.27;26.70;;;-5.60;99.90;;;-141.84;79.10;18655.56;5050567;28;20236;-61
2023/02/08 06:51:37;;;;;;;45.60;26.13;;;-5.60;99.90;;;-141.84;78.73;18612.91;5050536;28;20225;-61
2023/02/08 06:54:05;;;;;;;49.90;25.97;;;-5.50;99.90;;;-141.84;78.20;18643.38;5050159;28;20659;-61
2023/02/08 06:56:33;;;;;;;46.30;24.97;;;-5.40;99.90;;;-141.84;78.38;18645.41;5051011;28;20205;-60
2023/02/08 06:59:02;;;;;;;45.43;25.03;;;-5.50;99.90;;;-141.84;77.70;18616.97;5050298;28;20237;-62
2023/02/08 07:01:32;;;;;;;49.20;26.70;;;-5.40;99.90;;;-141.84;78.05;18610.88;5049698;28;20241;-62
2023/02/08 07:04:00;;;;;;;47.30;24.60;;;-5.50;99.90;;;-141.84;78.94;18641.34;5050144;28;20226;-61
2023/02/08 07:06:29;;;;;;;45.60;24.57;;;-5.50;99.90;;;-141.84;79.05;18623.06;5050329;28;20235;-61
2023/02/08 07:08:57;;;;;;;49.30;26.33;;;-5.50;99.90;;;-141.84;79.29;18616.97;5049940;28;20223;-62
2023/02/08 07:11:25;;;;;;;51.20;26.03;;;-5.40;99.90;;;-141.84;79.49;18606.81;5050529;28;20202;-60
2023/02/08 07:13:54;;;;;;;50.60;26.50;;;-5.50;99.90;;;-141.84;78.91;18623.06;5049816;28;20231;-61
2023/02/08 07:16:22;;;;;;;53.37;28.27;;;-5.40;99.90;;;-141.84;78.15;18663.69;5049791;28;20249;-62
2023/02/08 07:18:51;;;;;;;50.53;26.90;;;-5.40;99.90;;;-141.84;77.56;18614.94;5049860;28;20229;-62
2023/02/08 07:21:20;;;;;;;50.17;27.50;;;-5.40;99.90;;;-141.84;77.94;18606.81;5049714;28;20229;-62
2023/02/08 07:23:48;;;;;;;46.43;26.27;;;-5.40;99.90;;;-141.84;77.14;18679.94;5049887;28;20206;-60
2023/02/08 07:26:16;;;;;;;48.37;26.37;;;-5.30;99.90;;;-141.84;76.94;18651.50;5050010;28;20207;-62
2023/02/08 07:28:44;;;;;;;49.30;27.17;;;-5.20;99.90;;;-141.84;77.04;18633.22;5049415;28;20716;-63
2023/02/08 07:31:15;;;;;;;47.13;26.53;;;-5.30;99.90;;;-141.84;76.86;18633.22;5049660;28;20238;-61
2023/02/08 07:33:44;;;;;;;48.57;26.27;;;-5.20;99.90;;;-141.84;76.98;18671.81;5049394;28;20247;-61
2023/02/08 07:36:14;;;;;;;53.47;27.03;;;-5.20;99.90;;;-141.84;76.58;18639.31;5049892;28;20256;-61
2023/02/08 07:38:42;;;;;;;44.57;24.13;;;-5.10;99.90;;;-141.84;75.80;18629.16;5050054;28;20205;-62
2023/02/08 07:41:13;;;;;;;46.07;24.80;;;-5.10;99.90;;;-141.84;75.84;18637.28;5049723;28;20235;-61
2023/02/08 07:43:42;;;;;;;49.57;25.77;;;-5.00;99.90;;;-141.84;75.72;18665.72;5049506;28;20226;-61
2023/02/08 07:46:13;;;;;;;47.37;25.87;;;-4.90;99.90;;;-141.84;76.12;18673.84;5049458;28;20235;-61
2023/02/08 07:48:42;;;;;;;45.53;24.37;;;-4.90;99.90;;;-141.84;75.93;18645.41;5049593;28;20312;-61
2023/02/08 07:51:11;;;;;;;45.17;26.30;;;-4.70;99.90;;;-141.84;75.36;18665.72;5050072;28;20221;-61
2023/02/08 07:53:41;;;;;;;44.77;25.30;;;-4.50;99.90;;;-141.84;74.44;18637.28;5049862;28;20229;-61
2023/02/08 07:56:09;;;;;;;41.70;25.07;;;-4.40;99.90;;;-141.84;73.92;18686.03;5049202;28;20327;-62
2023/02/08 07:58:38;;;;;;;48.67;26.27;;;-4.30;99.90;;;-141.84;73.59;18673.84;5049559;28;20741;-62
2023/02/08 08:01:06;;;;;;;44.53;24.30;;;-4.20;99.90;;;-141.84;73.15;18679.94;5049144;28;20241;-61
2023/02/08 08:03:51;;;;;;;44.60;25.23;;;-4.10;99.90;;;-141.84;73.16;18655.56;5049346;28;20223;-61
2023/02/08 08:06:22;;;;;;;41.20;24.13;;;-4.10;99.90;;;-141.84;73.59;18724.66;5049468;28;20230;-61
2023/02/08 08:08:52;;;;;;;41.63;24.83;;;-4.00;99.90;;;-141.84;73.47;18686.03;5049319;28;20616;-61
2023/02/08 08:11:21;;;;;;;45.30;26.67;;;-3.90;99.90;;;-141.84;73.16;18688.06;5049447;28;20582;-61
2023/02/08 08:13:50;;;;;;;45.87;26.13;;;-3.80;99.90;;;-141.84;73.11;18684.00;5048822;28;20318;-61
2023/02/08 08:16:18;;;;;;;41.90;25.30;;;-3.70;99.90;;;-141.84;73.17;18688.06;5048829;28;20247;-64
2023/02/08 08:18:47;;;;;;;48.13;26.40;;;-3.70;99.90;;;-141.84;72.75;18710.44;5048993;28;20232;-62
2023/02/08 08:21:15;;;;;;;46.23;25.27;;;-3.70;99.90;;;-141.84;71.36;18704.31;5048795;28;20231;-61
2023/02/08 08:23:44;;;;;;;43.70;26.40;;;-3.60;99.90;;;-141.84;71.81;18708.41;5049109;28;20525;-62
2023/02/08 08:26:17;;;;;;;43.53;26.13;;;-3.50;99.90;;;-141.84;71.90;18716.53;5049242;28;20207;-62
2023/02/08 08:28:46;;;;;;;39.37;25.13;;;-3.30;99.90;;;-141.84;71.64;18702.28;5048593;28;20230;-60
2023/02/08 08:31:18;;;;;;;37.07;24.83;;;-3.20;99.90;;;-141.84;70.50;18712.47;5048727;28;20318;-62
2023/02/08 08:33:47;;;;;;;40.37;24.83;;;-3.10;99.90;;;-141.84;70.07;18734.81;5048854;28;20606;-61
2023/02/08 08:36:15;;;;;;;36.93;24.07;;;-3.00;99.90;;;-141.84;69.73;18708.41;5048738;28;20235;-60
2023/02/08 08:38:43;;;;;;;37.63;23.70;;;-3.00;99.90;;;-141.84;69.54;18726.69;5048611;28;20215;-62
2023/02/08 08:41:16;;;;;;;38.60;24.47;;;-2.90;99.90;;;-141.84;69.14;18744.97;5048846;28;20714;-61
2023/02/08 08:43:45;;;;;;;36.17;23.00;;;-2.80;99.90;;;-141.84;68.14;18759.19;5048616;28;20366;-62
2023/02/08 08:46:15;;;;;;;37.20;23.57;;;-2.60;99.90;;;-141.84;67.83;18763.25;5048464;28;20246;-61
2023/02/08 08:48:43;;;;;;;38.50;24.30;;;-2.50;99.90;;;-141.84;66.94;18773.41;5048486;28;20807;-62
2023/02/08 08:51:12;;;;;;;38.63;23.30;;;-2.50;99.90;;;-141.84;66.00;18773.41;5048627;28;20236;-61
2023/02/08 08:53:41;;;;;;;37.07;22.80;;;-2.50;99.90;;;-141.84;66.05;18793.72;5047405;28;20269;-61
2023/02/08 08:56:09;;;;;;;39.50;24.00;;;-2.40;99.90;;;-141.84;66.12;18755.13;5037764;28;20228;-62
2023/02/08 08:58:38;;;;;;;35.00;23.40;;;-2.20;99.90;;;-141.84;66.14;18797.78;5048382;28;20329;-62
2023/02/08 09:01:06;;;;;;;40.67;24.43;;;-2.10;99.90;;;-141.84;65.91;18757.16;5048614;28;20241;-61
2023/02/08 09:03:34;;;;;;;37.70;22.87;;;-2.00;99.90;;;-141.84;65.09;18809.97;5048591;28;20241;-62
2023/02/08 09:06:03;;;;;;;36.33;22.97;;;-2.00;99.90;;;-141.84;64.38;18775.44;5048652;28;20240;-61
2023/02/08 09:08:31;;;;;;;38.87;23.33;;;-1.90;99.90;;;-141.84;65.17;18793.72;5049519;28;20212;-61
2023/02/08 09:11:05;;;;;;;39.23;23.70;;;-1.90;99.90;;;-141.84;65.00;18791.69;5048549;28;20275;-60
2023/02/08 09:13:33;;;;;;;37.33;24.13;;;-2.00;99.90;;;-141.84;65.29;18793.72;5048662;28;20266;-61
2023/02/08 09:16:08;;;;;;;36.17;22.83;;;-1.80;99.90;;;-141.84;65.68;18785.59;5048327;28;20568;-61
2023/02/08 09:18:37;;;;;;;37.17;24.43;;;-1.80;99.90;;;-141.84;66.06;18787.63;5048823;28;20238;-61
2023/02/08 09:21:09;;;;;;;39.53;23.80;;;-1.90;99.90;;;-141.84;65.69;18787.63;5048416;28;20233;-61
2023/02/08 09:23:38;;;;;;;38.33;24.23;;;-1.90;99.90;;;-141.84;65.04;18803.88;5049322;28;20208;-61
2023/02/08 09:26:09;;;;;;;40.80;23.83;;;-1.80;99.90;;;-141.84;65.34;18814.03;5050492;28;20801;-61
2023/02/08 09:28:38;;;;;;;38.50;24.43;;;-1.90;99.90;;;-141.84;65.89;18816.06;5052110;28;20630;-61
2023/02/08 09:31:13;;;;;;;39.30;23.83;;;-1.80;99.90;;;-141.84;65.90;18781.53;5051883;28;20224;-62
2023/02/08 09:33:41;;;;;;;40.43;23.73;;;-1.70;99.90;;;-141.84;65.67;18814.03;5051883;28;20806;-62
2023/02/08 09:36:10;;;;;;;38.77;23.57;;;-1.50;99.90;;;-141.84;65.05;18838.44;5051712;28;20225;-60
2023/02/08 09:38:39;;;;;;;39.93;25.07;;;-1.50;99.90;;;-141.84;64.72;18834.38;5052272;28;20209;-60
2023/02/08 09:41:28;;;;;;;41.37;25.70;;;-1.50;99.90;;;-141.84;64.67;18836.41;5051436;28;20295;-61
2023/02/08 09:44:15;;;;;;;40.40;25.80;;;-1.40;99.90;;;-141.84;64.87;18828.28;5051870;28;20278;-61
2023/02/08 09:46:55;;;;;;;39.07;25.60;;;-1.40;99.90;;;-141.84;64.71;18846.56;5051482;28;20229;-63
2023/02/08 09:49:32;;;;;;;37.37;25.17;;;-1.20;99.90;;;-141.84;63.98;18826.25;5051746;28;20231;-62
2023/02/08 09:52:06;;;;;;;39.20;24.43;;;-1.00;99.90;;;-141.84;64.15;18834.38;5051709;28;20283;-61
2023/02/08 09:54:44;;;;;;;34.43;23.07;;;-1.00;99.90;;;-141.84;63.92;18868.91;5051386;28;20237;-60
2023/02/08 09:57:19;;;;;;;40.10;25.20;;;-1.00;99.90;;;-141.84;63.80;18842.50;5051794;28;20229;-62
2023/02/08 09:59:54;;;;;;;39.20;24.63;;;-0.90;99.90;;;-141.84;64.41;18856.72;5051516;28;20196;-61
2023/02/08 10:02:27;;;;;;;39.27;25.40;;;-0.90;99.90;;;-141.84;64.32;18854.69;5051949;28;20320;-63
2023/02/08 10:05:01;;;;;;;42.33;27.73;;;-0.70;99.90;;;-141.84;64.06;18877.03;5051353;28;20235;-62
2023/02/08 10:07:32;;;;;;;36.97;24.80;;;-0.70;99.90;;;-141.84;63.70;18850.63;5051705;28;20227;-62
2023/02/08 10:10:04;;;;;;;39.00;24.80;;;-0.60;99.90;;;-141.84;64.04;18852.66;5051496;28;20236;-62
2023/02/08 10:12:46;;;;;;;36.90;24.80;;;-0.50;99.90;;;-141.84;64.33;18868.91;5051429;28;20318;-62
2023/02/08 10:15:33;;;;;;;36.23;24.47;;;-0.40;99.90;;;-141.84;63.99;18883.13;5050926;28;20238;-61